createdAt,value
2022-08-17T00:00:42.790Z,45.54
2022-08-17T00:03:13.646Z,45.52
2022-08-17T00:05:47.315Z,45.56
2022-08-17T00:08:17.337Z,45.93
2022-08-17T00:10:47.903Z,46.04
2022-08-17T00:13:21.161Z,46.07
2022-08-17T00:15:50.375Z,46.22
2022-08-17T00:18:58.185Z,46.24
2022-08-17T00:21:11.818Z,46.34
2022-08-17T00:23:49.159Z,46.32
2022-08-17T00:26:35.854Z,46.58
2022-08-17T00:29:08.715Z,46.17
2022-08-17T00:31:38.170Z,46.36
2022-08-17T00:34:10.507Z,46.15
2022-08-17T00:36:38.965Z,46.50
2022-08-17T00:39:07.769Z,46.38
2022-08-17T00:41:36.160Z,46.46
2022-08-17T00:44:12.138Z,46.50
2022-08-17T00:46:43.432Z,46.96
2022-08-17T00:49:14.634Z,46.74
2022-08-17T00:51:48.943Z,46.95
2022-08-17T00:54:21.460Z,46.98
2022-08-17T00:56:55.211Z,47.05
2022-08-17T00:59:30.831Z,47.12
2022-08-17T01:02:00.683Z,47.23
2022-08-17T01:04:32.572Z,47.04
2022-08-17T01:07:02.891Z,47.06
2022-08-17T01:09:32.571Z,47.63
2022-08-17T01:12:01.515Z,47.64
2022-08-17T01:14:30.070Z,47.56
2022-08-17T01:16:58.636Z,47.74
2022-08-17T01:19:31.562Z,47.46
2022-08-17T01:22:04.136Z,47.81
2022-08-17T01:24:36.123Z,48.06
2022-08-17T01:27:10.071Z,48.20
2022-08-17T01:29:42.642Z,48.33
2022-08-17T01:32:11.631Z,48.03
2022-08-17T01:34:43.741Z,48.23
2022-08-17T01:37:21.121Z,48.13
2022-08-17T01:39:57.248Z,48.35
2022-08-17T01:42:32.455Z,48.13
2022-08-17T01:45:06.828Z,48.66
2022-08-17T01:47:36.143Z,48.87
2022-08-17T01:50:11.513Z,48.83
2022-08-17T01:52:40.517Z,48.68
2022-08-17T01:55:11.750Z,48.96
2022-08-17T01:57:40.115Z,48.71
2022-08-17T02:00:11.259Z,48.79
2022-08-17T02:02:40.960Z,48.71
2022-08-17T02:05:10.247Z,49.19
2022-08-17T02:08:00.545Z,48.90
2022-08-17T02:10:34.073Z,48.95
2022-08-17T02:13:03.926Z,49.21
2022-08-17T02:15:33.491Z,49.28
2022-08-17T02:18:02.983Z,49.38
2022-08-17T02:20:42.018Z,49.33
2022-08-17T02:23:14.760Z,49.71
2022-08-17T02:25:48.184Z,49.75
2022-08-17T02:28:19.026Z,49.42
2022-08-17T02:31:00.254Z,49.67
2022-08-17T02:33:42.135Z,49.78
2022-08-17T02:36:13.873Z,49.42
2022-08-17T02:38:43.721Z,49.38
2022-08-17T02:41:13.696Z,49.58
2022-08-17T02:43:42.753Z,49.62
2022-08-17T02:46:12.697Z,49.93
2022-08-17T02:48:41.041Z,49.84
2022-08-17T02:51:10.289Z,49.96
2022-08-17T02:53:38.647Z,49.87
2022-08-17T02:56:07.906Z,49.87
2022-08-17T02:58:37.620Z,49.97
2022-08-17T03:01:09.627Z,49.87
2022-08-17T03:03:39.269Z,49.95
2022-08-17T03:06:08.675Z,50.18
2022-08-17T03:08:38.058Z,50.08
2022-08-17T03:11:07.420Z,50.34
2022-08-17T03:13:37.402Z,50.28
2022-08-17T03:16:06.426Z,50.29
2022-08-17T03:18:35.144Z,50.28
2022-08-17T03:21:04.570Z,50.41
2022-08-17T03:23:34.073Z,50.47
2022-08-17T03:26:02.795Z,50.37
2022-08-17T03:28:32.167Z,50.84
2022-08-17T03:31:02.094Z,50.88
2022-08-17T03:33:31.131Z,50.90
2022-08-17T03:36:00.158Z,51.06
2022-08-17T03:38:29.449Z,51.38
2022-08-17T03:41:08.501Z,51.58
2022-08-17T03:43:37.341Z,51.73
2022-08-17T03:46:28.341Z,51.92
2022-08-17T03:49:23.681Z,52.08
2022-08-17T03:52:10.104Z,52.29
2022-08-17T03:55:11.811Z,52.59
2022-08-17T03:57:40.599Z,52.23
2022-08-17T04:00:10.395Z,52.24
2022-08-17T04:02:44.423Z,52.06
2022-08-17T04:05:14.948Z,52.23
2022-08-17T04:07:44.556Z,52.21
2022-08-17T04:10:14.023Z,52.39
2022-08-17T04:12:46.668Z,52.23
2022-08-17T04:15:16.156Z,52.18
2022-08-17T04:17:46.452Z,52.13
2022-08-17T04:20:17.220Z,52.24
2022-08-17T04:22:58.238Z,52.13
2022-08-17T04:25:28.240Z,52.14
2022-08-17T04:27:58.850Z,52.25
2022-08-17T04:30:29.411Z,52.29
2022-08-17T04:33:06.380Z,52.45
2022-08-17T04:35:38.894Z,52.30
2022-08-17T04:38:08.741Z,52.35
2022-08-17T04:40:55.482Z,52.49
2022-08-17T04:43:26.005Z,52.68
2022-08-17T04:45:58.727Z,52.68
2022-08-17T04:48:35.993Z,52.58
2022-08-17T04:51:09.999Z,52.72
2022-08-17T04:53:40.690Z,52.60
2022-08-17T04:56:15.964Z,52.81
2022-08-17T04:58:49.730Z,52.48
2022-08-17T05:01:23.439Z,52.65
2022-08-17T05:03:56.412Z,52.44
2022-08-17T05:06:25.065Z,52.53
2022-08-17T05:08:54.384Z,52.38
2022-08-17T05:11:23.466Z,52.40
2022-08-17T05:13:52.543Z,52.34
2022-08-17T05:16:22.620Z,52.31
2022-08-17T05:18:51.525Z,52.34
2022-08-17T05:21:23.026Z,52.47
2022-08-17T05:23:54.689Z,52.32
2022-08-17T05:26:26.690Z,52.49
2022-08-17T05:28:59.626Z,52.46
2022-08-17T05:31:29.649Z,52.36
2022-08-17T05:33:59.034Z,52.16
2022-08-17T05:36:41.743Z,52.48
2022-08-17T05:39:16.668Z,52.65
2022-08-17T05:41:48.537Z,52.73
2022-08-17T05:44:18.166Z,52.87
2022-08-17T05:46:51.270Z,53.08
2022-08-17T05:49:29.169Z,53.04
2022-08-17T05:52:07.049Z,53.37
2022-08-17T05:54:50.194Z,53.82
2022-08-17T05:57:39.890Z,53.98
2022-08-17T06:00:20.646Z,54.01
2022-08-17T06:03:05.484Z,53.97
2022-08-17T06:05:55.829Z,53.75
2022-08-17T06:08:35.025Z,53.79
2022-08-17T06:11:16.902Z,53.99
2022-08-17T06:14:03.456Z,53.71
2022-08-17T06:16:36.855Z,53.48
2022-08-17T06:19:12.030Z,53.90
2022-08-17T06:21:43.675Z,53.45
2022-08-17T06:24:27.403Z,53.41
2022-08-17T06:26:59.131Z,53.45
2022-08-17T06:29:37.274Z,53.56
2022-08-17T06:32:09.292Z,53.70
2022-08-17T06:34:42.289Z,53.29
2022-08-17T06:37:32.344Z,53.52
2022-08-17T06:40:18.002Z,53.31
2022-08-17T06:43:05.830Z,53.56
2022-08-17T06:45:40.317Z,53.55
2022-08-17T06:48:16.805Z,54.05
2022-08-17T06:50:50.540Z,53.96
2022-08-17T06:53:26.148Z,54.29
2022-08-17T06:56:03.646Z,54.17
2022-08-17T06:58:33.381Z,54.28
2022-08-17T07:01:08.012Z,54.25
2022-08-17T07:03:44.476Z,54.55
2022-08-17T07:06:16.432Z,53.81
2022-08-17T07:08:56.308Z,53.69
2022-08-17T07:11:29.034Z,53.54
2022-08-17T07:14:05.644Z,53.20
2022-08-17T07:16:39.187Z,53.29
2022-08-17T07:19:08.136Z,53.31
2022-08-17T07:21:51.071Z,53.08
2022-08-17T07:24:37.261Z,52.53
2022-08-17T07:27:11.192Z,52.46
2022-08-17T07:29:47.672Z,52.42
2022-08-17T07:32:19.678Z,52.02
2022-08-17T07:35:05.029Z,51.83
2022-08-17T07:37:34.309Z,51.46
2022-08-17T07:40:18.047Z,51.50
2022-08-17T07:46:13.160Z,50.62
2022-08-17T07:48:44.364Z,50.62
2022-08-17T07:51:19.542Z,50.52
2022-08-17T07:53:48.102Z,50.30
2022-08-17T07:56:37.812Z,49.57
2022-08-17T07:59:13.331Z,49.71
2022-08-17T08:01:48.635Z,49.24
2022-08-17T08:07:27.503Z,48.26
2022-08-17T08:10:07.632Z,47.56
2022-08-17T08:12:40.084Z,47.12
2022-08-17T08:15:17.757Z,47.18
2022-08-17T08:17:54.148Z,46.73
2022-08-17T08:20:52.306Z,46.51
2022-08-17T08:23:34.680Z,46.26
2022-08-17T08:26:18.404Z,45.97
2022-08-17T08:29:01.421Z,45.65
2022-08-17T08:31:44.204Z,45.01
2022-08-17T08:34:44.424Z,44.82
2022-08-17T08:37:32.269Z,44.57
2022-08-17T08:40:12.049Z,44.18
2022-08-17T08:42:51.204Z,43.73
2022-08-17T08:45:26.527Z,43.56
2022-08-17T08:48:22.693Z,43.22
2022-08-17T08:51:05.243Z,42.77
2022-08-17T08:53:45.617Z,42.49
2022-08-17T08:56:26.279Z,42.13
2022-08-17T08:59:03.370Z,41.91
2022-08-17T09:01:38.088Z,41.33
2022-08-17T09:04:26.005Z,40.98
2022-08-17T09:07:11.353Z,40.68
2022-08-17T09:09:49.582Z,40.00
2022-08-17T09:12:26.809Z,39.28
2022-08-17T09:15:02.305Z,39.56
2022-08-17T09:17:40.044Z,39.32
2022-08-17T09:20:28.230Z,38.95
2022-08-17T09:23:03.632Z,38.10
2022-08-17T09:25:36.428Z,37.98
2022-08-17T09:28:07.974Z,37.73
2022-08-17T09:30:42.556Z,37.37
2022-08-17T09:33:13.871Z,36.97
2022-08-17T09:35:46.730Z,36.92
2022-08-17T09:38:23.946Z,36.46
2022-08-17T09:41:00.775Z,36.19
2022-08-17T09:43:37.698Z,35.34
2022-08-17T09:46:12.646Z,35.56
2022-08-17T09:48:46.226Z,34.78
2022-08-17T09:51:19.320Z,34.00
2022-08-17T09:53:50.002Z,33.74
2022-08-17T09:56:33.771Z,33.67
2022-08-17T09:59:23.045Z,34.23
2022-08-17T10:02:00.430Z,33.56
2022-08-17T10:04:45.289Z,33.68
2022-08-17T10:07:18.808Z,33.05
2022-08-17T10:10:02.108Z,32.76
2022-08-17T10:12:38.687Z,31.92
2022-08-17T10:15:38.312Z,31.89
2022-08-17T10:18:30.560Z,31.73
2022-08-17T10:21:30.367Z,31.52
2022-08-17T10:24:24.619Z,31.23
2022-08-17T10:26:58.359Z,30.89
2022-08-17T10:29:32.699Z,30.53
2022-08-17T10:32:23.794Z,30.08
2022-08-17T10:35:25.975Z,29.61
2022-08-17T10:38:36.469Z,29.31
2022-08-17T10:41:20.676Z,29.26
2022-08-17T10:44:38.758Z,29.15
2022-08-17T10:47:00.088Z,28.40
2022-08-17T10:49:33.117Z,27.67
2022-08-17T10:52:30.527Z,27.24
2022-08-17T10:55:12.667Z,26.75
2022-08-17T10:57:45.014Z,26.73
2022-08-17T11:00:31.803Z,26.40
2022-08-17T11:03:01.499Z,26.27
2022-08-17T11:05:54.150Z,26.11
2022-08-17T11:08:37.659Z,25.74
2022-08-17T11:11:23.216Z,25.82
2022-08-17T11:14:11.599Z,25.99
2022-08-17T11:16:53.602Z,25.87
2022-08-17T11:20:00.421Z,25.50
2022-08-17T11:22:49.727Z,25.49
2022-08-17T11:25:21.090Z,25.23
2022-08-17T11:27:53.583Z,25.22
2022-08-17T11:30:48.690Z,25.04
2022-08-17T11:33:55.055Z,25.32
2022-08-17T11:36:41.433Z,25.23
2022-08-17T11:39:27.462Z,25.66
2022-08-17T11:42:05.297Z,25.86
2022-08-17T11:44:43.403Z,25.72
2022-08-17T11:47:36.161Z,25.26
2022-08-17T11:50:49.069Z,25.26
2022-08-17T11:54:14.703Z,24.23
2022-08-17T11:56:48.664Z,23.87
2022-08-17T12:00:00.041Z,23.11
2022-08-17T12:02:47.552Z,22.77
2022-08-17T12:05:34.159Z,22.76
2022-08-17T12:08:12.196Z,22.49
2022-08-17T12:10:51.532Z,22.73
2022-08-17T12:13:23.652Z,22.45
2022-08-17T12:15:59.796Z,22.86
2022-08-17T12:18:31.725Z,22.35
2022-08-17T12:21:20.937Z,22.27
2022-08-17T12:23:57.012Z,22.64
2022-08-17T12:26:31.500Z,22.05
2022-08-17T12:29:03.526Z,22.02
2022-08-17T12:31:37.227Z,21.68
2022-08-17T12:34:06.103Z,21.95
2022-08-17T12:36:35.644Z,21.56
2022-08-17T12:39:13.706Z,21.42
2022-08-17T12:41:46.929Z,22.15
2022-08-17T12:44:19.498Z,22.04
2022-08-17T12:46:55.506Z,21.72
2022-08-17T12:49:32.091Z,21.73
2022-08-17T12:52:09.768Z,20.71
2022-08-17T12:54:57.074Z,20.79
2022-08-17T12:57:28.172Z,20.40
2022-08-17T13:00:01.840Z,20.25
2022-08-17T13:02:40.076Z,20.58
2022-08-17T13:05:19.328Z,20.26
2022-08-17T13:07:48.094Z,19.89
2022-08-17T13:10:26.340Z,20.10
2022-08-17T13:12:58.167Z,20.69
2022-08-17T13:15:36.322Z,21.19
2022-08-17T13:18:09.246Z,20.89
2022-08-17T13:20:38.194Z,21.20
2022-08-17T13:23:12.610Z,20.45
2022-08-17T13:25:41.400Z,20.62
2022-08-17T13:28:30.639Z,20.86
2022-08-17T13:31:51.795Z,20.61
2022-08-17T13:34:38.721Z,20.39
2022-08-17T13:37:30.119Z,20.17
2022-08-17T13:40:30.746Z,19.96
2022-08-17T13:42:59.827Z,20.15
2022-08-17T13:45:44.851Z,19.75
2022-08-17T13:48:22.302Z,19.63
2022-08-17T13:51:08.727Z,19.19
2022-08-17T13:53:53.197Z,18.89
2022-08-17T13:56:33.380Z,18.59
2022-08-17T13:59:12.300Z,18.75
2022-08-17T14:01:43.565Z,18.80
2022-08-17T14:04:15.248Z,18.84
2022-08-17T14:06:49.795Z,18.88
2022-08-17T14:09:24.803Z,19.79
2022-08-17T14:11:56.032Z,19.47
2022-08-17T14:14:24.936Z,20.43
2022-08-17T14:16:54.850Z,20.33
2022-08-17T14:19:23.462Z,20.51
2022-08-17T14:21:59.249Z,20.66
2022-08-17T14:24:31.871Z,20.70
2022-08-17T14:27:03.777Z,21.12
2022-08-17T14:29:34.311Z,21.29
2022-08-17T14:32:07.991Z,20.86
2022-08-17T14:34:36.581Z,21.17
2022-08-17T14:37:04.965Z,21.65
2022-08-17T14:39:34.233Z,21.29
2022-08-17T14:42:04.015Z,21.46
2022-08-17T14:44:32.548Z,21.70
2022-08-17T14:47:01.326Z,21.29
2022-08-17T14:49:30.260Z,21.75
2022-08-17T14:51:59.477Z,21.85
2022-08-17T14:54:34.232Z,21.98
2022-08-17T14:57:22.819Z,21.76
2022-08-17T14:59:54.753Z,21.52
2022-08-17T15:02:29.883Z,21.52
2022-08-17T15:05:04.547Z,21.37
2022-08-17T15:07:33.415Z,21.30
2022-08-17T15:10:02.332Z,21.26
2022-08-17T15:12:34.502Z,21.00
2022-08-17T15:15:04.746Z,20.90
2022-08-17T15:17:44.538Z,21.09
2022-08-17T15:20:18.263Z,20.58
2022-08-17T15:22:49.611Z,21.04
2022-08-17T15:25:22.129Z,20.78
2022-08-17T15:27:52.743Z,20.34
2022-08-17T15:30:22.028Z,20.76
2022-08-17T15:32:54.922Z,20.54
2022-08-17T15:35:28.274Z,20.44
2022-08-17T15:38:04.538Z,20.46
2022-08-17T15:40:36.681Z,20.86
2022-08-17T15:43:07.709Z,20.78
2022-08-17T15:45:36.056Z,20.89
2022-08-17T15:48:05.014Z,20.23
2022-08-17T15:50:33.859Z,20.61
2022-08-17T15:53:03.543Z,20.59
2022-08-17T15:55:33.093Z,21.13
2022-08-17T15:58:01.844Z,21.09
2022-08-17T16:00:39.779Z,21.17
2022-08-17T16:04:01.438Z,21.72
2022-08-17T16:06:11.045Z,21.53
2022-08-17T16:08:42.026Z,21.44
2022-08-17T16:11:11.324Z,21.71
2022-08-17T16:13:40.676Z,22.06
2022-08-17T16:16:11.840Z,21.58
2022-08-17T16:18:40.524Z,21.85
2022-08-17T16:21:29.522Z,21.82
2022-08-17T16:24:02.058Z,21.77
2022-08-17T16:26:33.383Z,21.60
2022-08-17T16:29:04.480Z,21.88
2022-08-17T16:31:36.316Z,22.20
2022-08-17T16:34:23.307Z,22.59
2022-08-17T16:36:56.077Z,22.32
2022-08-17T16:39:27.397Z,22.87
2022-08-17T16:41:56.500Z,23.03
2022-08-17T16:44:26.154Z,23.26
2022-08-17T16:46:57.363Z,23.21
2022-08-17T16:49:37.020Z,23.43
2022-08-17T16:52:09.753Z,23.61
2022-08-17T16:54:40.590Z,23.67
2022-08-17T16:57:09.167Z,23.86
2022-08-17T16:59:40.948Z,24.19
2022-08-17T17:02:15.388Z,23.94
2022-08-17T17:05:03.716Z,24.67
2022-08-17T17:08:00.749Z,24.82
2022-08-17T17:10:37.002Z,25.03
2022-08-17T17:13:08.996Z,24.98
2022-08-17T17:15:51.686Z,25.67
2022-08-17T17:18:27.512Z,25.57
2022-08-17T17:20:58.240Z,26.02
2022-08-17T17:23:38.823Z,26.15
2022-08-17T17:26:19.095Z,26.28
2022-08-17T17:29:01.936Z,26.23
2022-08-17T17:31:38.324Z,26.48
2022-08-17T17:34:14.146Z,26.60
2022-08-17T17:36:47.035Z,26.47
2022-08-17T17:39:19.753Z,26.54
2022-08-17T17:41:52.361Z,27.15
2022-08-17T17:44:25.836Z,27.11
2022-08-17T17:46:58.570Z,27.37
2022-08-17T17:49:31.199Z,27.17
2022-08-17T17:52:07.690Z,27.38
2022-08-17T17:54:52.249Z,27.44
2022-08-17T17:57:30.283Z,27.39
2022-08-17T18:00:06.985Z,27.73
2022-08-17T18:02:54.705Z,27.79
2022-08-17T18:05:49.169Z,28.12
2022-08-17T18:08:32.213Z,28.00
2022-08-17T18:11:14.117Z,27.91
2022-08-17T18:14:07.547Z,28.52
2022-08-17T18:16:36.008Z,28.43
2022-08-17T18:19:06.830Z,28.20
2022-08-17T18:21:44.365Z,28.14
2022-08-17T18:24:14.000Z,27.99
2022-08-17T18:26:51.085Z,28.67
2022-08-17T18:29:31.895Z,28.68
2022-08-17T18:32:27.004Z,28.50
2022-08-17T18:34:57.755Z,29.14
2022-08-17T18:37:42.559Z,29.18
2022-08-17T18:40:29.639Z,28.87
2022-08-17T18:43:03.205Z,29.13
2022-08-17T18:45:35.703Z,29.13
2022-08-17T18:48:05.068Z,29.66
2022-08-17T18:50:41.163Z,30.00
2022-08-17T18:53:30.384Z,29.90
2022-08-17T18:56:32.224Z,29.90
2022-08-17T18:59:10.910Z,30.22
2022-08-17T19:01:53.790Z,30.25
2022-08-17T19:04:33.975Z,30.72
2022-08-17T19:07:10.777Z,31.52
2022-08-17T19:09:45.137Z,32.18
2022-08-17T19:12:27.397Z,32.20
2022-08-17T19:14:59.860Z,32.75
2022-08-17T19:17:39.634Z,32.75
2022-08-17T19:20:16.066Z,32.77
2022-08-17T19:22:55.041Z,32.58
2022-08-17T19:25:28.764Z,33.00
2022-08-17T19:28:12.707Z,33.48
2022-08-17T19:30:51.806Z,33.45
2022-08-17T19:33:20.493Z,33.67
2022-08-17T19:35:57.673Z,33.95
2022-08-17T19:38:35.473Z,33.82
2022-08-17T19:41:13.735Z,34.01
2022-08-17T19:44:01.273Z,34.51
2022-08-17T19:46:36.679Z,34.56
2022-08-17T19:49:14.580Z,34.54
2022-08-17T19:51:50.641Z,34.55
2022-08-17T19:54:26.992Z,34.39
2022-08-17T19:57:03.549Z,34.71
2022-08-17T19:59:49.035Z,34.61
2022-08-17T20:02:32.748Z,34.78
2022-08-17T20:05:06.456Z,35.24
2022-08-17T20:07:43.495Z,35.01
2022-08-17T20:10:17.124Z,35.38
2022-08-17T20:12:50.909Z,35.60
2022-08-17T20:15:26.299Z,35.79
2022-08-17T20:17:58.866Z,35.44
2022-08-17T20:20:36.415Z,35.67
2022-08-17T20:23:13.191Z,35.74
2022-08-17T20:25:49.912Z,35.80
2022-08-17T20:28:25.372Z,35.98
2022-08-17T20:30:53.770Z,36.16
2022-08-17T20:33:29.651Z,36.29
2022-08-17T20:36:18.632Z,36.41
2022-08-17T20:38:50.500Z,36.28
2022-08-17T20:41:22.421Z,36.54
2022-08-17T20:44:04.211Z,36.33
2022-08-17T20:47:02.187Z,36.60
2022-08-17T20:49:47.575Z,36.75
2022-08-17T20:52:38.405Z,36.97
2022-08-17T20:55:07.720Z,37.13
2022-08-17T20:57:54.013Z,37.31
2022-08-17T21:00:45.128Z,37.51
2022-08-17T21:03:51.085Z,37.65
2022-08-17T21:06:23.619Z,37.71
2022-08-17T21:08:57.672Z,37.66
2022-08-17T21:12:03.481Z,38.03
2022-08-17T21:14:57.387Z,37.71
2022-08-17T21:17:42.089Z,37.70
2022-08-17T21:20:24.513Z,37.91
2022-08-17T21:23:16.273Z,38.05
2022-08-17T21:26:02.790Z,38.32
2022-08-17T21:29:00.407Z,38.21
2022-08-17T21:31:34.770Z,38.41
2022-08-17T21:34:35.267Z,38.47
2022-08-17T21:37:30.483Z,38.74
2022-08-17T21:40:02.328Z,38.71
2022-08-17T21:42:35.170Z,38.66
2022-08-17T21:45:11.711Z,38.96
2022-08-17T21:47:45.516Z,39.11
2022-08-17T21:50:21.915Z,39.27
2022-08-17T21:52:54.097Z,39.32
2022-08-17T21:55:29.467Z,39.51
2022-08-17T21:58:13.973Z,39.57
2022-08-17T22:00:45.043Z,39.54
2022-08-17T22:03:27.764Z,39.57
2022-08-17T22:05:58.217Z,39.52
2022-08-17T22:08:26.802Z,39.45
2022-08-17T22:11:02.759Z,39.43
2022-08-17T22:13:31.743Z,39.29
2022-08-17T22:16:28.440Z,39.57
2022-08-17T22:18:59.948Z,39.54
2022-08-17T22:21:29.675Z,39.54
2022-08-17T22:24:05.835Z,39.69
2022-08-17T22:27:01.637Z,40.07
2022-08-17T22:29:57.653Z,40.28
2022-08-17T22:32:36.303Z,40.37
2022-08-17T22:35:37.221Z,40.84
2022-08-17T22:38:32.648Z,40.80
2022-08-17T22:41:25.962Z,42.39
2022-08-17T22:43:57.731Z,42.77
2022-08-17T22:46:26.637Z,43.06
2022-08-17T22:48:59.664Z,43.02
2022-08-17T22:51:30.805Z,43.24
2022-08-17T22:54:22.334Z,43.21
2022-08-17T22:57:14.926Z,43.25
2022-08-17T22:59:50.971Z,43.50
2022-08-17T23:02:26.709Z,43.47
2022-08-17T23:04:59.099Z,43.43
2022-08-17T23:07:27.936Z,43.43
2022-08-17T23:09:57.643Z,43.79
2022-08-17T23:12:27.910Z,44.21
2022-08-17T23:15:01.591Z,44.66
2022-08-17T23:17:37.103Z,44.79
2022-08-17T23:20:08.287Z,45.04
2022-08-17T23:22:51.203Z,45.52
2022-08-17T23:25:28.476Z,45.94
2022-08-17T23:28:01.455Z,46.36
2022-08-17T23:30:31.539Z,46.56
2022-08-17T23:33:02.339Z,46.75
2022-08-17T23:35:40.114Z,46.97
2022-08-17T23:38:10.609Z,46.88
2022-08-17T23:40:41.284Z,47.11
2022-08-17T23:43:24.084Z,47.38
2022-08-17T23:45:55.054Z,47.81
2022-08-17T23:48:35.325Z,48.61
2022-08-17T23:51:10.395Z,49.33
2022-08-17T23:53:45.110Z,49.99
2022-08-17T23:56:15.362Z,50.95
2022-08-17T23:58:44.762Z,51.31
